sensor_id;sensor_type;location;lat;lon;timestamp;pressure;altitude;pressure_sealevel;temperature;humidity
55291;BME280;41155;39.768;2.712;2023-03-08T00:02:17;100763.25;;;13.02;65.24
55291;BME280;41155;39.768;2.712;2023-03-08T00:04:42;100736.66;;;12.94;65.17
55291;BME280;41155;39.768;2.712;2023-03-08T00:07:08;100755.41;;;13.10;64.85
55291;BME280;41155;39.768;2.712;2023-03-08T00:09:34;100762.19;;;13.08;64.80
55291;BME280;41155;39.768;2.712;2023-03-08T00:12:01;100773.00;;;13.03;65.35
55291;BME280;41155;39.768;2.712;2023-03-08T00:14:26;100759.72;;;12.96;65.47
55291;BME280;41155;39.768;2.712;2023-03-08T00:16:52;100765.66;;;12.93;65.78
55291;BME280;41155;39.768;2.712;2023-03-08T00:19:17;100736.59;;;12.83;65.81
55291;BME280;41155;39.768;2.712;2023-03-08T00:21:43;100742.59;;;12.96;65.67
55291;BME280;41155;39.768;2.712;2023-03-08T00:24:08;100735.00;;;12.93;65.65
55291;BME280;41155;39.768;2.712;2023-03-08T00:26:34;100756.16;;;12.96;65.44
55291;BME280;41155;39.768;2.712;2023-03-08T00:29:00;100757.81;;;12.97;65.49
55291;BME280;41155;39.768;2.712;2023-03-08T00:31:26;100735.81;;;12.83;65.14
55291;BME280;41155;39.768;2.712;2023-03-08T00:33:52;100752.31;;;12.76;65.54
55291;BME280;41155;39.768;2.712;2023-03-08T00:36:18;100756.91;;;12.76;65.49
55291;BME280;41155;39.768;2.712;2023-03-08T00:38:44;100761.81;;;12.79;65.87
55291;BME280;41155;39.768;2.712;2023-03-08T00:41:11;100757.78;;;12.34;66.44
55291;BME280;41155;39.768;2.712;2023-03-08T00:43:37;100756.22;;;12.48;66.28
55291;BME280;41155;39.768;2.712;2023-03-08T00:46:04;100731.25;;;12.36;66.56
55291;BME280;41155;39.768;2.712;2023-03-08T00:48:30;100751.94;;;12.57;66.66
55291;BME280;41155;39.768;2.712;2023-03-08T00:50:56;100714.44;;;12.34;66.65
55291;BME280;41155;39.768;2.712;2023-03-08T00:53:21;100739.69;;;12.50;66.68
55291;BME280;41155;39.768;2.712;2023-03-08T00:55:48;100765.03;;;12.71;66.46
55291;BME280;41155;39.768;2.712;2023-03-08T00:58:14;100728.38;;;12.53;66.04
55291;BME280;41155;39.768;2.712;2023-03-08T01:00:40;100769.94;;;12.84;65.75
55291;BME280;41155;39.768;2.712;2023-03-08T01:03:05;100731.56;;;12.44;65.66
55291;BME280;41155;39.768;2.712;2023-03-08T01:05:31;100762.81;;;12.62;65.95
55291;BME280;41155;39.768;2.712;2023-03-08T01:07:56;100748.38;;;12.52;65.89
55291;BME280;41155;39.768;2.712;2023-03-08T01:10:21;100767.69;;;12.65;65.60
55291;BME280;41155;39.768;2.712;2023-03-08T01:12:48;100764.63;;;12.52;66.21
55291;BME280;41155;39.768;2.712;2023-03-08T01:15:14;100751.78;;;12.32;66.25
55291;BME280;41155;39.768;2.712;2023-03-08T01:17:39;100769.38;;;12.29;67.00
55291;BME280;41155;39.768;2.712;2023-03-08T01:20:05;100763.97;;;12.29;67.16
55291;BME280;41155;39.768;2.712;2023-03-08T01:22:31;100764.03;;;12.39;67.07
55291;BME280;41155;39.768;2.712;2023-03-08T01:24:57;100737.38;;;12.16;67.18
55291;BME280;41155;39.768;2.712;2023-03-08T01:27:22;100757.56;;;12.46;67.03
55291;BME280;41155;39.768;2.712;2023-03-08T01:29:48;100764.03;;;12.39;66.83
55291;BME280;41155;39.768;2.712;2023-03-08T01:32:13;100760.75;;;12.37;66.93
55291;BME280;41155;39.768;2.712;2023-03-08T01:34:39;100728.25;;;12.32;66.84
55291;BME280;41155;39.768;2.712;2023-03-08T01:37:04;100747.91;;;12.17;66.95
55291;BME280;41155;39.768;2.712;2023-03-08T01:39:30;100729.63;;;11.92;68.33
55291;BME280;41155;39.768;2.712;2023-03-08T01:41:56;100728.59;;;11.98;67.51
55291;BME280;41155;39.768;2.712;2023-03-08T01:44:22;100744.44;;;12.22;67.40
55291;BME280;41155;39.768;2.712;2023-03-08T01:46:48;100727.59;;;12.10;67.13
55291;BME280;41155;39.768;2.712;2023-03-08T01:49:17;100746.06;;;12.18;67.54
55291;BME280;41155;39.768;2.712;2023-03-08T01:51:51;100753.91;;;12.19;67.59
55291;BME280;41155;39.768;2.712;2023-03-08T01:54:30;100754.75;;;12.25;67.31
55291;BME280;41155;39.768;2.712;2023-03-08T01:57:01;100755.19;;;12.12;67.58
55291;BME280;41155;39.768;2.712;2023-03-08T01:59:29;100731.53;;;11.97;67.17
55291;BME280;41155;39.768;2.712;2023-03-08T02:01:56;100755.47;;;12.10;67.29
55291;BME280;41155;39.768;2.712;2023-03-08T02:04:24;100739.97;;;12.01;67.49
55291;BME280;41155;39.768;2.712;2023-03-08T02:06:49;100760.59;;;12.12;67.54
55291;BME280;41155;39.768;2.712;2023-03-08T02:09:15;100717.72;;;11.93;67.46
55291;BME280;41155;39.768;2.712;2023-03-08T02:11:41;100746.53;;;12.10;67.44
55291;BME280;41155;39.768;2.712;2023-03-08T02:14:07;100759.03;;;12.16;67.48
55291;BME280;41155;39.768;2.712;2023-03-08T02:16:32;100747.28;;;12.05;67.50
55291;BME280;41155;39.768;2.712;2023-03-08T02:19:01;100758.22;;;12.15;67.32
55291;BME280;41155;39.768;2.712;2023-03-08T02:21:28;100754.94;;;12.13;67.42
55291;BME280;41155;39.768;2.712;2023-03-08T02:23:54;100748.47;;;12.19;67.66
55291;BME280;41155;39.768;2.712;2023-03-08T02:26:20;100747.91;;;12.17;67.76
55291;BME280;41155;39.768;2.712;2023-03-08T02:28:46;100745.78;;;12.19;67.54
55291;BME280;41155;39.768;2.712;2023-03-08T02:31:13;100738.94;;;12.12;67.57
55291;BME280;41155;39.768;2.712;2023-03-08T02:33:38;100745.97;;;12.08;67.29
55291;BME280;41155;39.768;2.712;2023-03-08T02:36:05;100741.63;;;12.07;67.19
55291;BME280;41155;39.768;2.712;2023-03-08T02:38:32;100751.38;;;12.08;67.34
55291;BME280;41155;39.768;2.712;2023-03-08T02:40:58;100736.19;;;12.02;67.78
55291;BME280;41155;39.768;2.712;2023-03-08T02:43:24;100738.88;;;12.02;67.72
55291;BME280;41155;39.768;2.712;2023-03-08T02:45:50;100745.13;;;12.02;67.79
55291;BME280;41155;39.768;2.712;2023-03-08T02:48:17;100742.13;;;11.98;67.84
55291;BME280;41155;39.768;2.712;2023-03-08T02:50:42;100743.81;;;12.10;67.75
55291;BME280;41155;39.768;2.712;2023-03-08T02:53:08;100738.13;;;12.11;67.57
55291;BME280;41155;39.768;2.712;2023-03-08T02:55:34;100741.13;;;12.15;67.18
55291;BME280;41155;39.768;2.712;2023-03-08T02:58:05;100737.06;;;12.12;67.11
55291;BME280;41155;39.768;2.712;2023-03-08T03:00:32;100737.38;;;12.16;67.07
55291;BME280;41155;39.768;2.712;2023-03-08T03:02:58;100740.50;;;12.03;67.24
55291;BME280;41155;39.768;2.712;2023-03-08T03:05:23;100743.16;;;11.97;67.65
55291;BME280;41155;39.768;2.712;2023-03-08T03:07:49;100738.59;;;11.98;67.68
55291;BME280;41155;39.768;2.712;2023-03-08T03:10:14;100731.03;;;11.68;68.21
55291;BME280;41155;39.768;2.712;2023-03-08T03:12:40;100721.41;;;11.50;69.66
55291;BME280;41155;39.768;2.712;2023-03-08T03:15:07;100735.31;;;11.64;69.39
55291;BME280;41155;39.768;2.712;2023-03-08T03:17:33;100744.28;;;11.69;69.63
55291;BME280;41155;39.768;2.712;2023-03-08T03:20:01;100744.84;;;11.71;69.69
55291;BME280;41155;39.768;2.712;2023-03-08T03:22:27;100736.22;;;11.74;69.26
55291;BME280;41155;39.768;2.712;2023-03-08T03:24:52;100738.16;;;11.79;69.06
55291;BME280;41155;39.768;2.712;2023-03-08T03:27:18;100727.59;;;11.77;68.82
55291;BME280;41155;39.768;2.712;2023-03-08T03:29:44;100741.41;;;11.81;68.57
55291;BME280;41155;39.768;2.712;2023-03-08T03:32:10;100736.25;;;11.80;68.36
55291;BME280;41155;39.768;2.712;2023-03-08T03:34:36;100743.94;;;11.88;68.51
55291;BME280;41155;39.768;2.712;2023-03-08T03:37:01;100739.28;;;11.83;68.54
55291;BME280;41155;39.768;2.712;2023-03-08T03:39:27;100716.34;;;11.59;67.92
55291;BME280;41155;39.768;2.712;2023-03-08T03:41:58;100710.34;;;11.51;68.37
55291;BME280;41155;39.768;2.712;2023-03-08T03:44:24;100712.84;;;11.31;69.19
55291;BME280;41155;39.768;2.712;2023-03-08T03:46:49;100714.28;;;11.39;69.44
55291;BME280;41155;39.768;2.712;2023-03-08T03:49:15;100714.72;;;11.25;70.12
55291;BME280;41155;39.768;2.712;2023-03-08T03:51:41;100731.88;;;11.41;70.34
55291;BME280;41155;39.768;2.712;2023-03-08T03:54:06;100728.94;;;11.48;70.16
55291;BME280;41155;39.768;2.712;2023-03-08T03:56:31;100726.25;;;11.48;70.01
55291;BME280;41155;39.768;2.712;2023-03-08T03:58:57;100728.94;;;11.48;70.22
55291;BME280;41155;39.768;2.712;2023-03-08T04:01:28;100721.13;;;11.46;69.88
55291;BME280;41155;39.768;2.712;2023-03-08T04:03:54;100731.75;;;11.58;70.03
55291;BME280;41155;39.768;2.712;2023-03-08T04:06:25;100728.50;;;11.56;69.93
55291;BME280;41155;39.768;2.712;2023-03-08T04:08:53;100733.44;;;11.64;69.44
55291;BME280;41155;39.768;2.712;2023-03-08T04:11:21;100726.06;;;11.60;68.56
55291;BME280;41155;39.768;2.712;2023-03-08T04:13:47;100703.06;;;10.98;70.39
55291;BME280;41155;39.768;2.712;2023-03-08T04:16:16;100718.75;;;11.28;69.73
55291;BME280;41155;39.768;2.712;2023-03-08T04:18:42;100719.84;;;11.27;69.78
55291;BME280;41155;39.768;2.712;2023-03-08T04:21:08;100714.94;;;11.24;70.20
55291;BME280;41155;39.768;2.712;2023-03-08T04:23:34;100707.06;;;11.22;70.24
55291;BME280;41155;39.768;2.712;2023-03-08T04:26:00;100716.91;;;11.28;70.30
55291;BME280;41155;39.768;2.712;2023-03-08T04:28:26;100707.13;;;11.27;70.22
55291;BME280;41155;39.768;2.712;2023-03-08T04:30:51;100690.41;;;11.30;70.35
55291;BME280;41155;39.768;2.712;2023-03-08T04:33:17;100707.84;;;11.45;69.83
55291;BME280;41155;39.768;2.712;2023-03-08T04:35:42;100705.94;;;11.45;69.31
55291;BME280;41155;39.768;2.712;2023-03-08T04:38:08;100692.06;;;11.37;69.15
55291;BME280;41155;39.768;2.712;2023-03-08T04:40:33;100689.72;;;11.45;69.21
55291;BME280;41155;39.768;2.712;2023-03-08T04:43:22;100690.28;;;11.47;68.91
55291;BME280;41155;39.768;2.712;2023-03-08T04:45:47;100698.91;;;11.44;69.07
55291;BME280;41155;39.768;2.712;2023-03-08T04:48:13;100700.00;;;11.48;68.83
55291;BME280;41155;39.768;2.712;2023-03-08T04:50:38;100704.63;;;11.48;68.86
55291;BME280;41155;39.768;2.712;2023-03-08T04:53:04;100712.19;;;11.46;68.72
55291;BME280;41155;39.768;2.712;2023-03-08T04:55:30;100693.22;;;11.41;68.25
55291;BME280;41155;39.768;2.712;2023-03-08T04:57:55;100687.91;;;11.24;68.64
55291;BME280;41155;39.768;2.712;2023-03-08T05:00:21;100653.19;;;10.83;69.92
55291;BME280;41155;39.768;2.712;2023-03-08T05:02:47;100705.41;;;11.16;69.87
55291;BME280;41155;39.768;2.712;2023-03-08T05:05:12;100689.34;;;11.04;69.99
55291;BME280;41155;39.768;2.712;2023-03-08T05:07:38;100688.31;;;11.11;69.65
55291;BME280;41155;39.768;2.712;2023-03-08T05:10:03;100699.69;;;11.13;69.79
55291;BME280;41155;39.768;2.712;2023-03-08T05:12:29;100691.06;;;11.16;69.46
55291;BME280;41155;39.768;2.712;2023-03-08T05:14:54;100698.22;;;11.27;69.31
55291;BME280;41155;39.768;2.712;2023-03-08T05:17:20;100680.78;;;11.13;69.82
55291;BME280;41155;39.768;2.712;2023-03-08T05:19:46;100687.31;;;11.17;70.02
55291;BME280;41155;39.768;2.712;2023-03-08T05:22:11;100707.59;;;11.19;70.28
55291;BME280;41155;39.768;2.712;2023-03-08T05:24:38;100712.19;;;11.19;70.28
55291;BME280;41155;39.768;2.712;2023-03-08T05:27:06;100717.13;;;11.27;69.72
55291;BME280;41155;39.768;2.712;2023-03-08T05:29:32;100703.03;;;11.20;69.38
55291;BME280;41155;39.768;2.712;2023-03-08T05:31:59;100652.44;;;10.88;69.62
55291;BME280;41155;39.768;2.712;2023-03-08T05:34:27;100709.53;;;11.24;69.62
55291;BME280;41155;39.768;2.712;2023-03-08T05:36:52;100728.22;;;11.25;69.44
55291;BME280;41155;39.768;2.712;2023-03-08T05:39:17;100742.03;;;11.29;69.68
55291;BME280;41155;39.768;2.712;2023-03-08T05:41:43;100752.84;;;11.29;69.84
55291;BME280;41155;39.768;2.712;2023-03-08T05:44:08;100764.09;;;11.21;69.28
55291;BME280;41155;39.768;2.712;2023-03-08T05:46:34;100770.53;;;11.15;69.30
55291;BME280;41155;39.768;2.712;2023-03-08T05:49:02;100765.50;;;11.01;70.03
55291;BME280;41155;39.768;2.712;2023-03-08T05:51:28;100779.59;;;11.03;70.22
55291;BME280;41155;39.768;2.712;2023-03-08T05:53:53;100784.13;;;10.98;70.73
55291;BME280;41155;39.768;2.712;2023-03-08T05:56:21;100777.41;;;11.00;70.62
55291;BME280;41155;39.768;2.712;2023-03-08T05:58:47;100786.31;;;11.01;71.04
55291;BME280;41155;39.768;2.712;2023-03-08T06:01:17;100776.50;;;10.95;71.01
55291;BME280;41155;39.768;2.712;2023-03-08T06:03:45;100800.56;;;11.18;70.34
55291;BME280;41155;39.768;2.712;2023-03-08T06:06:11;100801.66;;;11.44;69.28
55291;BME280;41155;39.768;2.712;2023-03-08T06:08:37;100801.94;;;11.21;69.96
55291;BME280;41155;39.768;2.712;2023-03-08T06:11:03;100774.19;;;11.03;70.08
55291;BME280;41155;39.768;2.712;2023-03-08T06:13:28;100775.44;;;11.18;70.37
55291;BME280;41155;39.768;2.712;2023-03-08T06:15:58;100779.50;;;11.20;70.37
55291;BME280;41155;39.768;2.712;2023-03-08T06:18:24;100769.06;;;11.29;69.81
55291;BME280;41155;39.768;2.712;2023-03-08T06:21:00;100783.91;;;11.53;69.27
55291;BME280;41155;39.768;2.712;2023-03-08T06:23:27;100781.66;;;11.45;69.48
55291;BME280;41155;39.768;2.712;2023-03-08T06:25:54;100737.09;;;11.21;69.55
55291;BME280;41155;39.768;2.712;2023-03-08T06:28:20;100770.31;;;11.48;69.11
55291;BME280;41155;39.768;2.712;2023-03-08T06:30:46;100784.72;;;11.54;69.25
55291;BME280;41155;39.768;2.712;2023-03-08T06:33:16;100776.66;;;11.59;68.91
55291;BME280;41155;39.768;2.712;2023-03-08T06:35:43;100772.47;;;11.46;68.96
55291;BME280;41155;39.768;2.712;2023-03-08T06:38:09;100777.44;;;11.54;69.16
55291;BME280;41155;39.768;2.712;2023-03-08T06:40:34;100744.22;;;11.32;68.89
55291;BME280;41155;39.768;2.712;2023-03-08T06:43:00;100791.28;;;11.36;68.66
55291;BME280;41155;39.768;2.712;2023-03-08T06:45:26;100799.06;;;11.54;68.44
55291;BME280;41155;39.768;2.712;2023-03-08T06:47:51;100785.50;;;11.49;68.63
55291;BME280;41155;39.768;2.712;2023-03-08T06:50:17;100803.41;;;11.56;68.63
55291;BME280;41155;39.768;2.712;2023-03-08T06:52:42;100782.16;;;11.42;68.83
55291;BME280;41155;39.768;2.712;2023-03-08T06:55:09;100819.91;;;11.59;68.88
55291;BME280;41155;39.768;2.712;2023-03-08T06:57:34;100834.88;;;11.67;68.75
55291;BME280;41155;39.768;2.712;2023-03-08T07:00:00;100837.38;;;11.46;68.69
55291;BME280;41155;39.768;2.712;2023-03-08T07:02:26;100840.50;;;11.60;68.61
55291;BME280;41155;39.768;2.712;2023-03-08T07:04:51;100841.84;;;11.36;69.89
55291;BME280;41155;39.768;2.712;2023-03-08T07:07:16;100850.47;;;10.89;71.44
55291;BME280;41155;39.768;2.712;2023-03-08T07:09:42;100840.28;;;11.18;70.13
55291;BME280;41155;39.768;2.712;2023-03-08T07:12:08;100861.06;;;11.39;69.86
55291;BME280;41155;39.768;2.712;2023-03-08T07:14:33;100865.59;;;11.56;69.63
55291;BME280;41155;39.768;2.712;2023-03-08T07:16:59;100866.72;;;11.60;69.61
55291;BME280;41155;39.768;2.712;2023-03-08T07:19:24;100833.88;;;11.51;69.08
55291;BME280;41155;39.768;2.712;2023-03-08T07:21:50;100862.56;;;12.01;67.01
55291;BME280;41155;39.768;2.712;2023-03-08T07:24:16;100861.41;;;11.92;67.46
55291;BME280;41155;39.768;2.712;2023-03-08T07:26:41;100860.56;;;11.91;68.06
55291;BME280;41155;39.768;2.712;2023-03-08T07:29:07;100874.72;;;11.98;67.97
55291;BME280;41155;39.768;2.712;2023-03-08T07:31:32;100845.41;;;11.90;67.69
55291;BME280;41155;39.768;2.712;2023-03-08T07:34:01;100859.22;;;12.21;67.16
55291;BME280;41155;39.768;2.712;2023-03-08T07:36:31;100844.16;;;12.35;66.92
55291;BME280;41155;39.768;2.712;2023-03-08T07:38:57;100845.84;;;12.47;67.21
55291;BME280;41155;39.768;2.712;2023-03-08T07:41:22;100837.19;;;12.44;67.43
55291;BME280;41155;39.768;2.712;2023-03-08T07:43:47;100856.00;;;12.61;67.35
55291;BME280;41155;39.768;2.712;2023-03-08T07:46:14;100853.09;;;12.78;67.11
55291;BME280;41155;39.768;2.712;2023-03-08T07:48:39;100825.78;;;12.90;66.33
55291;BME280;41155;39.768;2.712;2023-03-08T07:51:07;100838.41;;;13.17;67.70
55291;BME280;41155;39.768;2.712;2023-03-08T07:53:34;100832.44;;;13.20;66.25
55291;BME280;41155;39.768;2.712;2023-03-08T07:56:00;100836.59;;;13.38;65.13
55291;BME280;41155;39.768;2.712;2023-03-08T07:58:26;100813.31;;;13.52;64.43
55291;BME280;41155;39.768;2.712;2023-03-08T08:00:53;100855.16;;;13.87;64.34
55291;BME280;41155;39.768;2.712;2023-03-08T08:03:18;100831.53;;;13.87;64.72
55291;BME280;41155;39.768;2.712;2023-03-08T08:05:44;100864.13;;;14.18;64.33
55291;BME280;41155;39.768;2.712;2023-03-08T08:08:09;100864.38;;;14.42;63.77
55291;BME280;41155;39.768;2.712;2023-03-08T08:10:41;100871.44;;;14.74;63.35
55291;BME280;41155;39.768;2.712;2023-03-08T08:13:06;100877.53;;;15.25;62.12
55291;BME280;41155;39.768;2.712;2023-03-08T08:15:32;100882.22;;;15.74;60.19
55291;BME280;41155;39.768;2.712;2023-03-08T08:17:58;100885.47;;;16.79;56.40
55291;BME280;41155;39.768;2.712;2023-03-08T08:20:24;100883.63;;;17.66;53.08
55291;BME280;41155;39.768;2.712;2023-03-08T08:22:54;100866.66;;;19.13;49.95
55291;BME280;41155;39.768;2.712;2023-03-08T08:25:20;100856.63;;;19.73;44.09
55291;BME280;41155;39.768;2.712;2023-03-08T08:27:46;100879.06;;;20.65;43.06
55291;BME280;41155;39.768;2.712;2023-03-08T08:30:13;100897.78;;;20.94;43.85
55291;BME280;41155;39.768;2.712;2023-03-08T08:32:39;100889.47;;;22.26;40.47
55291;BME280;41155;39.768;2.712;2023-03-08T08:35:05;100910.13;;;22.58;39.46
55291;BME280;41155;39.768;2.712;2023-03-08T08:37:32;100885.34;;;24.73;35.62
55291;BME280;41155;39.768;2.712;2023-03-08T08:39:58;100904.50;;;26.04;34.08
55291;BME280;41155;39.768;2.712;2023-03-08T08:42:24;100900.47;;;26.74;31.63
55291;BME280;41155;39.768;2.712;2023-03-08T08:44:51;100909.69;;;26.94;30.89
55291;BME280;41155;39.768;2.712;2023-03-08T08:47:17;100909.75;;;28.38;28.98
55291;BME280;41155;39.768;2.712;2023-03-08T08:49:42;100901.06;;;29.89;27.24
55291;BME280;41155;39.768;2.712;2023-03-08T08:52:08;100923.31;;;30.94;25.19
55291;BME280;41155;39.768;2.712;2023-03-08T08:54:33;100929.03;;;31.70;24.11
55291;BME280;41155;39.768;2.712;2023-03-08T08:56:59;100913.03;;;32.66;22.61
55291;BME280;41155;39.768;2.712;2023-03-08T08:59:24;100934.09;;;32.31;23.40
55291;BME280;41155;39.768;2.712;2023-03-08T09:01:50;100909.88;;;33.24;22.13
55291;BME280;41155;39.768;2.712;2023-03-08T09:04:15;100909.03;;;32.59;22.67
55291;BME280;41155;39.768;2.712;2023-03-08T09:06:41;100915.06;;;33.22;21.01
55291;BME280;41155;39.768;2.712;2023-03-08T09:09:07;100911.00;;;33.48;20.83
55291;BME280;41155;39.768;2.712;2023-03-08T09:11:33;100924.78;;;31.32;23.37
55291;BME280;41155;39.768;2.712;2023-03-08T09:13:59;100909.41;;;31.01;23.74
55291;BME280;41155;39.768;2.712;2023-03-08T09:16:33;100907.13;;;29.94;25.45
55291;BME280;41155;39.768;2.712;2023-03-08T09:19:00;100919.25;;;27.99;28.12
55291;BME280;41155;39.768;2.712;2023-03-08T09:21:27;100917.22;;;27.60;28.24
55291;BME280;41155;39.768;2.712;2023-03-08T09:23:54;100906.75;;;26.43;30.21
55291;BME280;41155;39.768;2.712;2023-03-08T09:26:20;100900.41;;;26.70;30.38
55291;BME280;41155;39.768;2.712;2023-03-08T09:28:45;100894.34;;;26.08;31.16
55291;BME280;41155;39.768;2.712;2023-03-08T09:31:13;100900.78;;;24.86;33.73
55291;BME280;41155;39.768;2.712;2023-03-08T09:33:43;100899.00;;;24.45;34.18
55291;BME280;41155;39.768;2.712;2023-03-08T09:36:08;100888.09;;;24.06;34.78
55291;BME280;41155;39.768;2.712;2023-03-08T09:38:34;100885.81;;;23.66;36.58
55291;BME280;41155;39.768;2.712;2023-03-08T09:46:33;100879.31;;;22.73;37.80
55291;BME280;41155;39.768;2.712;2023-03-08T09:49:00;100876.28;;;22.66;39.54
55291;BME280;41155;39.768;2.712;2023-03-08T09:51:35;100877.09;;;22.58;39.54
55291;BME280;41155;39.768;2.712;2023-03-08T09:54:06;100891.50;;;22.64;39.43
55291;BME280;41155;39.768;2.712;2023-03-08T09:56:38;100888.75;;;22.64;39.61
55291;BME280;41155;39.768;2.712;2023-03-08T09:59:14;100885.63;;;22.83;38.24
55291;BME280;41155;39.768;2.712;2023-03-08T10:01:46;100873.00;;;22.73;38.57
55291;BME280;41155;39.768;2.712;2023-03-08T10:09:37;100886.78;;;22.64;38.73
55291;BME280;41155;39.768;2.712;2023-03-08T10:15:00;100877.59;;;22.60;39.06
55291;BME280;41155;39.768;2.712;2023-03-08T10:17:52;100872.50;;;22.71;39.38
55291;BME280;41155;39.768;2.712;2023-03-08T10:22:44;100890.81;;;22.75;38.28
55291;BME280;41155;39.768;2.712;2023-03-08T10:25:25;100882.63;;;22.49;39.18
55291;BME280;41155;39.768;2.712;2023-03-08T10:27:54;100861.00;;;22.22;39.31
55291;BME280;41155;39.768;2.712;2023-03-08T10:30:23;100885.13;;;22.25;40.30
55291;BME280;41155;39.768;2.712;2023-03-08T10:32:54;100892.19;;;22.43;39.61
55291;BME280;41155;39.768;2.712;2023-03-08T10:35:37;100891.22;;;22.48;39.00
55291;BME280;41155;39.768;2.712;2023-03-08T10:38:04;100888.63;;;22.51;38.32
55291;BME280;41155;39.768;2.712;2023-03-08T10:40:38;100885.19;;;22.63;38.59
55291;BME280;41155;39.768;2.712;2023-03-08T10:43:05;100884.41;;;22.54;37.80
55291;BME280;41155;39.768;2.712;2023-03-08T10:45:31;100871.97;;;22.48;38.82
55291;BME280;41155;39.768;2.712;2023-03-08T10:48:02;100873.72;;;22.44;38.95
55291;BME280;41155;39.768;2.712;2023-03-08T10:50:33;100871.69;;;22.23;39.47
55291;BME280;41155;39.768;2.712;2023-03-08T10:53:08;100859.50;;;22.16;39.53
55291;BME280;41155;39.768;2.712;2023-03-08T10:55:45;100878.78;;;21.98;39.82
55291;BME280;41155;39.768;2.712;2023-03-08T10:58:27;100870.06;;;21.87;40.96
55291;BME280;41155;39.768;2.712;2023-03-08T11:01:04;100870.22;;;21.82;40.97
55291;BME280;41155;39.768;2.712;2023-03-08T11:03:30;100869.88;;;22.01;40.21
55291;BME280;41155;39.768;2.712;2023-03-08T11:06:01;100867.78;;;21.89;40.98
55291;BME280;41155;39.768;2.712;2023-03-08T11:08:31;100868.13;;;21.97;41.52
55291;BME280;41155;39.768;2.712;2023-03-08T11:11:11;100863.59;;;21.83;40.86
55291;BME280;41155;39.768;2.712;2023-03-08T11:13:45;100848.72;;;22.02;41.65
55291;BME280;41155;39.768;2.712;2023-03-08T11:21:19;100863.13;;;22.25;41.34
55291;BME280;41155;39.768;2.712;2023-03-08T11:23:49;100856.13;;;22.27;41.89
55291;BME280;41155;39.768;2.712;2023-03-08T11:26:30;100853.88;;;22.29;41.97
55291;BME280;41155;39.768;2.712;2023-03-08T11:29:31;100847.56;;;21.94;41.89
55291;BME280;41155;39.768;2.712;2023-03-08T11:34:49;100841.59;;;22.18;41.91
55291;BME280;41155;39.768;2.712;2023-03-08T11:37:43;100842.88;;;22.12;41.52
55291;BME280;41155;39.768;2.712;2023-03-08T11:40:21;100854.19;;;22.37;40.99
55291;BME280;41155;39.768;2.712;2023-03-08T11:50:25;100840.84;;;22.56;41.57
55291;BME280;41155;39.768;2.712;2023-03-08T12:00:53;100816.00;;;22.73;41.25
55291;BME280;41155;39.768;2.712;2023-03-08T12:03:24;100782.97;;;22.73;40.68
55291;BME280;41155;39.768;2.712;2023-03-08T12:05:59;100815.44;;;22.97;40.52
55291;BME280;41155;39.768;2.712;2023-03-08T12:08:38;100822.03;;;23.05;40.83
55291;BME280;41155;39.768;2.712;2023-03-08T12:11:21;100810.97;;;22.75;41.14
55291;BME280;41155;39.768;2.712;2023-03-08T12:13:52;100818.44;;;22.75;41.34
55291;BME280;41155;39.768;2.712;2023-03-08T12:19:25;100815.75;;;22.96;40.77
55291;BME280;41155;39.768;2.712;2023-03-08T12:27:35;100803.34;;;22.81;41.13
55291;BME280;41155;39.768;2.712;2023-03-08T12:32:39;100758.50;;;22.51;42.46
55291;BME280;41155;39.768;2.712;2023-03-08T12:35:33;100787.56;;;22.99;42.29
55291;BME280;41155;39.768;2.712;2023-03-08T12:38:30;100782.28;;;23.15;41.26
55291;BME280;41155;39.768;2.712;2023-03-08T12:40:56;100767.03;;;23.38;41.10
55291;BME280;41155;39.768;2.712;2023-03-08T12:53:43;100745.63;;;24.10;39.87
55291;BME280;41155;39.768;2.712;2023-03-08T13:02:36;100744.00;;;24.09;40.84
55291;BME280;41155;39.768;2.712;2023-03-08T13:04:31;100750.25;;;24.31;39.13
55291;BME280;41155;39.768;2.712;2023-03-08T13:15:00;100737.16;;;23.82;41.30
55291;BME280;41155;39.768;2.712;2023-03-08T13:17:36;100742.59;;;23.91;40.36
55291;BME280;41155;39.768;2.712;2023-03-08T13:20:14;100713.31;;;23.65;41.74
55291;BME280;41155;39.768;2.712;2023-03-08T13:28:24;100677.09;;;23.88;40.88
55291;BME280;41155;39.768;2.712;2023-03-08T13:30:53;100699.88;;;24.09;41.38
55291;BME280;41155;39.768;2.712;2023-03-08T13:33:42;100700.47;;;24.27;40.98
55291;BME280;41155;39.768;2.712;2023-03-08T13:36:30;100711.16;;;24.04;41.22
55291;BME280;41155;39.768;2.712;2023-03-08T13:41:40;100713.94;;;23.83;41.69
55291;BME280;41155;39.768;2.712;2023-03-08T13:46:44;100724.56;;;23.39;41.49
55291;BME280;41155;39.768;2.712;2023-03-08T13:51:45;100732.50;;;23.20;42.29
55291;BME280;41155;39.768;2.712;2023-03-08T13:54:15;100747.63;;;23.14;42.72
55291;BME280;41155;39.768;2.712;2023-03-08T13:56:41;100743.88;;;22.89;42.95
55291;BME280;41155;39.768;2.712;2023-03-08T13:59:16;100712.78;;;22.88;43.39
55291;BME280;41155;39.768;2.712;2023-03-08T14:01:47;100740.44;;;23.00;42.85
55291;BME280;41155;39.768;2.712;2023-03-08T14:04:18;100746.28;;;22.90;42.24
55291;BME280;41155;39.768;2.712;2023-03-08T14:06:50;100758.19;;;23.12;42.82
55291;BME280;41155;39.768;2.712;2023-03-08T14:09:16;100751.09;;;23.02;42.89
55291;BME280;41155;39.768;2.712;2023-03-08T14:11:43;100726.13;;;23.07;42.99
55291;BME280;41155;39.768;2.712;2023-03-08T14:14:28;100721.28;;;23.04;43.11
55291;BME280;41155;39.768;2.712;2023-03-08T14:16:54;100753.84;;;23.02;43.43
55291;BME280;41155;39.768;2.712;2023-03-08T14:19:34;100744.25;;;23.08;43.05
55291;BME280;41155;39.768;2.712;2023-03-08T14:22:13;100737.53;;;22.88;43.23
55291;BME280;41155;39.768;2.712;2023-03-08T14:24:41;100717.81;;;22.65;43.78